Time;durP1;ratioP1;P1;durP2;ratioP2;P2;SDS_P1;SDS_P2;PMS_P1;PMS_P2;Temp;Humidity;BMP_temperature;BMP_pressure;BME280_temperature;BME280_humidity;BME280_pressure;Samples;Min_cycle;Max_cycle;Signal;HPM_P1;HPM_P2
2023/05/05 00:02:54;;;;;;;17.35;8.60;;;;;;;;;;6221560;28;20104;-59
2023/05/05 00:05:54;;;;;;;19.35;9.77;;;;;;;;;;6220756;28;20048;-58
2023/05/05 00:08:55;;;;;;;18.02;9.95;;;;;;;;;;6221163;28;20087;-60
2023/05/05 00:11:55;;;;;;;17.55;9.98;;;;;;;;;;6220006;28;20484;-59
2023/05/05 00:14:56;;;;;;;17.02;8.88;;;;;;;;;;6219746;28;20041;-58
2023/05/05 00:17:57;;;;;;;18.10;9.45;;;;;;;;;;6221529;28;20038;-58
2023/05/05 00:20:57;;;;;;;18.13;9.10;;;;;;;;;;6221019;28;20050;-60
2023/05/05 00:23:58;;;;;;;18.15;9.25;;;;;;;;;;6218376;28;20049;-59
2023/05/05 00:27:01;;;;;;;16.73;8.88;;;;;;;;;;6219938;28;20520;-58
2023/05/05 00:30:01;;;;;;;;;;;;;;;;;;6224251;28;20699;-61
2023/05/05 00:33:02;;;;;;;14.15;8.13;;;;;;;;;;6220190;28;19921;-61
2023/05/05 00:36:03;;;;;;;16.52;8.80;;;;;;;;;;6219109;28;20038;-62
2023/05/05 00:39:04;;;;;;;15.85;9.23;;;;;;;;;;6221062;28;20093;-57
2023/05/05 00:42:04;;;;;;;15.85;8.40;;;;;;;;;;6221533;28;20092;-60
2023/05/05 00:45:06;;;;;;;18.70;8.68;;;;;;;;;;6219274;28;20056;-73
2023/05/05 00:48:06;;;;;;;16.67;9.10;;;;;;;;;;6221713;28;20052;-68
2023/05/05 00:51:09;;;;;;;16.88;8.70;;;;;;;;;;6220087;28;20462;-62
2023/05/05 00:54:09;;;;;;;14.90;8.88;;;;;;;;;;6199371;28;20045;-60
2023/05/05 00:57:10;;;;;;;14.88;9.02;;;;;;;;;;6222256;28;20488;-62
2023/05/05 01:00:11;;;;;;;15.73;8.38;;;;;;;;;;6222096;28;20046;-59
2023/05/05 01:03:14;;;;;;;16.37;9.10;;;;;;;;;;6221241;28;20053;-73
2023/05/05 01:06:28;;;;;;;16.05;8.65;;;;;;;;;;6219797;28;20299;-60
2023/05/05 01:09:41;;;;;;;15.70;8.20;;;;;;;;;;6221085;28;20046;-64
2023/05/05 01:13:04;;;;;;;16.30;8.15;;;;;;;;;;6220053;28;20053;-58
2023/05/05 01:16:15;;;;;;;16.20;8.13;;;;;;;;;;6220085;28;20049;-67
2023/05/05 01:19:27;;;;;;;13.88;8.00;;;;;;;;;;6219472;28;20046;-61
2023/05/05 01:22:37;;;;;;;13.32;7.68;;;;;;;;;;6223006;28;20412;-72
2023/05/05 01:25:56;;;;;;;15.55;9.00;;;;;;;;;;6225584;28;20045;-57
2023/05/05 01:29:27;;;;;;;14.88;8.32;;;;;;;;;;6234013;28;20049;-60
2023/05/05 01:32:32;;;;;;;20.13;8.55;;;;;;;;;;6219552;28;21034;-58
2023/05/05 01:35:42;;;;;;;14.80;8.43;;;;;;;;;;6221833;28;20056;-59
2023/05/05 01:38:44;;;;;;;14.35;7.90;;;;;;;;;;6222077;28;20052;-63
2023/05/05 01:41:47;;;;;;;14.98;8.40;;;;;;;;;;6216987;28;20111;-60
2023/05/05 01:44:49;;;;;;;15.02;8.23;;;;;;;;;;6218143;28;20053;-63
2023/05/05 01:47:52;;;;;;;17.50;8.65;;;;;;;;;;6229195;28;20037;-58
2023/05/05 01:50:53;;;;;;;15.05;8.02;;;;;;;;;;6224718;28;20046;-58
2023/05/05 01:53:59;;;;;;;13.05;7.88;;;;;;;;;;6222943;28;20644;-64
2023/05/05 01:57:02;;;;;;;13.65;7.70;;;;;;;;;;6236293;28;21551;-59
2023/05/05 02:00:04;;;;;;;15.27;9.10;;;;;;;;;;6226114;28;20042;-60
2023/05/05 02:03:06;;;;;;;19.02;8.73;;;;;;;;;;6223054;28;20122;-58
2023/05/05 02:06:07;;;;;;;;;;;;;;;;;;6223174;28;20052;-69
2023/05/05 02:09:11;;;;;;;17.08;8.63;;;;;;;;;;6220529;28;20291;-57
2023/05/05 02:12:12;;;;;;;15.23;8.77;;;;;;;;;;6223580;28;20052;-57
2023/05/05 02:15:15;;;;;;;15.10;8.52;;;;;;;;;;6223787;28;20115;-59
2023/05/05 02:18:17;;;;;;;14.70;8.60;;;;;;;;;;6226462;28;20111;-59
2023/05/05 02:21:18;;;;;;;15.30;8.43;;;;;;;;;;6224007;28;20048;-74
2023/05/05 02:24:19;;;;;;;21.60;9.77;;;;;;;;;;6221016;28;20492;-58
2023/05/05 02:27:22;;;;;;;16.38;8.38;;;;;;;;;;6225386;28;20060;-67
2023/05/05 02:30:24;;;;;;;22.35;9.00;;;;;;;;;;6225398;28;20144;-62
2023/05/05 02:33:26;;;;;;;15.32;8.27;;;;;;;;;;6223312;28;20049;-73
2023/05/05 02:36:28;;;;;;;;;;;;;;;;;;6224647;28;20056;-63
2023/05/05 02:39:42;;;;;;;16.60;8.33;;;;;;;;;;6220306;28;20268;-62
2023/05/05 02:42:45;;;;;;;18.13;8.60;;;;;;;;;;6225128;28;20065;-58
2023/05/05 02:45:47;;;;;;;18.50;9.07;;;;;;;;;;6222603;28;20042;-60
2023/05/05 02:48:48;;;;;;;;;;;;;;;;;;6221411;28;20419;-73
2023/05/05 02:51:49;;;;;;;15.25;8.77;;;;;;;;;;6223467;28;19925;-59
2023/05/05 02:54:50;;;;;;;18.25;8.77;;;;;;;;;;6221688;28;20045;-59
2023/05/05 02:58:04;;;;;;;16.60;8.65;;;;;;;;;;6223249;28;20045;-57
2023/05/05 03:01:39;;;;;;;18.10;8.50;;;;;;;;;;6223223;28;20092;-59
2023/05/05 03:05:08;;;;;;;14.63;7.88;;;;;;;;;;6224033;28;20045;-60
2023/05/05 03:08:14;;;;;;;12.90;7.97;;;;;;;;;;6217362;28;20056;-58
2023/05/05 03:11:26;;;;;;;15.27;8.13;;;;;;;;;;6220057;28;20393;-59
2023/05/05 03:14:29;;;;;;;14.98;8.35;;;;;;;;;;6225051;28;20060;-59
2023/05/05 03:17:32;;;;;;;15.77;8.32;;;;;;;;;;6223772;28;20131;-59
2023/05/05 03:20:33;;;;;;;13.80;7.43;;;;;;;;;;6224707;28;20044;-72
2023/05/05 03:23:35;;;;;;;16.02;7.90;;;;;;;;;;6224493;28;20749;-62
2023/05/05 03:26:36;;;;;;;13.20;7.63;;;;;;;;;;6224067;28;20053;-57
2023/05/05 03:29:36;;;;;;;13.73;7.97;;;;;;;;;;6225027;28;20053;-58
2023/05/05 03:32:37;;;;;;;13.68;7.57;;;;;;;;;;6222535;28;20191;-57
2023/05/05 03:35:37;;;;;;;13.55;7.25;;;;;;;;;;6224444;28;20054;-60
2023/05/05 03:38:38;;;;;;;13.55;8.00;;;;;;;;;;6224702;28;20050;-60
2023/05/05 03:41:39;;;;;;;17.17;8.60;;;;;;;;;;6223012;28;20080;-67
2023/05/05 03:44:40;;;;;;;15.73;7.97;;;;;;;;;;6223497;28;20830;-64
2023/05/05 03:47:40;;;;;;;15.50;8.10;;;;;;;;;;6224046;28;20046;-73
2023/05/05 03:50:43;;;;;;;16.08;8.10;;;;;;;;;;6220343;28;20045;-60
2023/05/05 03:53:44;;;;;;;15.00;7.82;;;;;;;;;;6234819;28;20049;-60
2023/05/05 03:56:45;;;;;;;14.95;8.02;;;;;;;;;;6222967;28;20045;-57
2023/05/05 03:59:45;;;;;;;15.02;8.80;;;;;;;;;;6219400;28;20591;-63
2023/05/05 04:02:46;;;;;;;18.90;8.30;;;;;;;;;;6222331;28;20049;-57
2023/05/05 04:05:46;;;;;;;21.23;8.35;;;;;;;;;;6222427;28;20113;-58
2023/05/05 04:08:47;;;;;;;14.65;7.82;;;;;;;;;;6220582;28;20129;-65
2023/05/05 04:11:47;;;;;;;14.13;7.47;;;;;;;;;;6222465;28;20065;-59
2023/05/05 04:14:48;;;;;;;15.43;7.78;;;;;;;;;;6230547;28;20160;-66
2023/05/05 04:17:49;;;;;;;18.00;8.23;;;;;;;;;;6223121;28;20045;-74
2023/05/05 04:20:49;;;;;;;16.42;7.75;;;;;;;;;;6219868;28;20160;-60
2023/05/05 04:23:51;;;;;;;14.23;7.80;;;;;;;;;;6209999;28;20053;-62
2023/05/05 04:26:52;;;;;;;15.15;7.88;;;;;;;;;;6222224;28;20435;-60
2023/05/05 04:29:52;;;;;;;16.23;8.10;;;;;;;;;;6220583;28;20037;-63
2023/05/05 04:32:53;;;;;;;17.73;8.68;;;;;;;;;;6219695;28;20137;-58
2023/05/05 04:35:54;;;;;;;18.63;9.35;;;;;;;;;;6222596;28;20056;-58
2023/05/05 04:38:54;;;;;;;15.63;8.35;;;;;;;;;;6220571;28;20049;-63
2023/05/05 04:41:55;;;;;;;16.08;8.55;;;;;;;;;;6221125;28;20052;-57
2023/05/05 04:44:56;;;;;;;17.55;9.55;;;;;;;;;;6223920;28;20416;-65
2023/05/05 04:47:56;;;;;;;15.18;8.07;;;;;;;;;;6221792;28;20045;-62
2023/05/05 04:50:57;;;;;;;18.00;9.10;;;;;;;;;;6219561;28;20049;-59
2023/05/05 04:53:57;;;;;;;17.35;8.63;;;;;;;;;;6218933;28;20050;-60
2023/05/05 04:56:58;;;;;;;18.13;9.57;;;;;;;;;;6220559;28;20144;-69
2023/05/05 05:00:00;;;;;;;17.73;9.13;;;;;;;;;;6219736;28;20041;-60
2023/05/05 05:03:01;;;;;;;22.60;9.80;;;;;;;;;;6220354;28;20087;-59
2023/05/05 05:06:01;;;;;;;17.33;9.48;;;;;;;;;;6219136;28;20448;-60
2023/05/05 05:09:02;;;;;;;18.58;9.98;;;;;;;;;;6215950;28;20417;-57
2023/05/05 05:12:03;;;;;;;19.80;9.90;;;;;;;;;;6236947;28;20409;-66
2023/05/05 05:15:04;;;;;;;16.80;10.07;;;;;;;;;;6242509;28;20136;-60
2023/05/05 05:18:05;;;;;;;17.08;10.40;;;;;;;;;;6242167;28;20369;-58
2023/05/05 05:21:06;;;;;;;17.65;9.98;;;;;;;;;;6240354;28;20173;-60
2023/05/05 05:24:06;;;;;;;18.83;9.18;;;;;;;;;;6242806;28;20050;-57
2023/05/05 05:27:08;;;;;;;17.05;9.55;;;;;;;;;;6242423;28;20072;-59
2023/05/05 05:30:08;;;;;;;20.23;10.75;;;;;;;;;;6222902;28;20056;-58
2023/05/05 05:33:09;;;;;;;16.42;9.60;;;;;;;;;;6241242;28;20041;-60
2023/05/05 05:36:10;;;;;;;20.38;11.05;;;;;;;;;;6241765;28;20048;-65
2023/05/05 05:39:11;;;;;;;21.77;12.40;;;;;;;;;;6241021;28;20045;-59
2023/05/05 05:42:11;;;;;;;20.98;10.77;;;;;;;;;;6242066;28;20195;-61
2023/05/05 05:45:12;;;;;;;17.85;8.80;;;;;;;;;;6241724;28;20441;-57
2023/05/05 05:48:12;;;;;;;17.77;9.65;;;;;;;;;;6237936;28;20080;-60
2023/05/05 05:51:13;;;;;;;19.52;10.88;;;;;;;;;;6223707;28;20061;-60
2023/05/05 05:54:13;;;;;;;17.40;10.45;;;;;;;;;;6230963;28;20413;-59
2023/05/05 05:57:14;;;;;;;15.45;8.68;;;;;;;;;;6228259;28;20571;-61
2023/05/05 06:00:15;;;;;;;16.52;9.50;;;;;;;;;;6234481;28;20049;-56
2023/05/05 06:03:15;;;;;;;17.63;8.90;;;;;;;;;;6232066;28;20494;-60
2023/05/05 06:06:16;;;;;;;15.68;8.95;;;;;;;;;;6221881;28;20054;-58
2023/05/05 06:09:17;;;;;;;17.75;9.10;;;;;;;;;;6232702;28;20061;-59
2023/05/05 06:12:17;;;;;;;17.88;10.15;;;;;;;;;;6240731;28;20041;-55
2023/05/05 06:15:18;;;;;;;16.85;9.30;;;;;;;;;;6228901;28;20075;-60
2023/05/05 06:18:18;;;;;;;14.77;8.02;;;;;;;;;;6241197;28;20053;-53
2023/05/05 06:21:20;;;;;;;16.92;8.18;;;;;;;;;;6240425;28;20081;-67
2023/05/05 06:24:21;;;;;;;14.55;7.97;;;;;;;;;;6241864;28;20664;-56
2023/05/05 06:27:21;;;;;;;13.75;7.90;;;;;;;;;;6242131;28;20041;-51
2023/05/05 06:30:22;;;;;;;17.95;8.98;;;;;;;;;;6239635;28;20046;-63
2023/05/05 06:33:22;;;;;;;15.07;7.93;;;;;;;;;;6227556;28;20049;-52
2023/05/05 06:36:23;;;;;;;18.08;8.20;;;;;;;;;;6244946;28;20103;-55
2023/05/05 06:39:24;;;;;;;23.15;11.82;;;;;;;;;;6245176;28;20096;-58
2023/05/05 06:42:24;;;;;;;29.23;15.02;;;;;;;;;;6246054;28;20049;-56
2023/05/05 06:45:25;;;;;;;10.73;6.85;;;;;;;;;;6245290;28;20080;-62
2023/05/05 06:48:26;;;;;;;12.25;6.57;;;;;;;;;;6245717;28;20052;-67
2023/05/05 06:51:26;;;;;;;15.20;8.07;;;;;;;;;;6244702;28;20047;-61
2023/05/05 06:54:27;;;;;;;11.93;6.72;;;;;;;;;;6234315;28;20519;-58
2023/05/05 06:57:28;;;;;;;14.75;7.22;;;;;;;;;;6239896;28;20128;-51
2023/05/05 07:00:28;;;;;;;13.90;8.20;;;;;;;;;;6242407;28;20049;-56
2023/05/05 07:03:29;;;;;;;12.38;6.22;;;;;;;;;;6245872;28;20045;-59
2023/05/05 07:06:30;;;;;;;12.38;7.03;;;;;;;;;;6244803;28;20049;-56
2023/05/05 07:09:31;;;;;;;10.70;5.32;;;;;;;;;;6243993;28;20049;-56
2023/05/05 07:12:31;;;;;;;12.13;6.65;;;;;;;;;;6245548;28;20825;-57
2023/05/05 07:15:32;;;;;;;9.50;5.30;;;;;;;;;;6244801;28;20050;-56
2023/05/05 07:18:33;;;;;;;11.32;5.85;;;;;;;;;;6244603;28;20135;-68
2023/05/05 07:21:34;;;;;;;10.73;4.88;;;;;;;;;;6238678;28;20072;-55
2023/05/05 07:24:34;;;;;;;9.70;5.00;;;;;;;;;;6245473;28;20046;-55
2023/05/05 07:27:36;;;;;;;11.70;5.13;;;;;;;;;;6244933;28;20407;-69
2023/05/05 07:30:36;;;;;;;8.60;4.43;;;;;;;;;;6243293;28;20148;-60
2023/05/05 07:33:37;;;;;;;12.45;4.30;;;;;;;;;;6244443;28;20627;-58
2023/05/05 07:36:37;;;;;;;14.93;5.10;;;;;;;;;;6244352;28;20049;-63
2023/05/05 07:39:38;;;;;;;11.63;4.15;;;;;;;;;;6243601;28;20068;-60
2023/05/05 07:42:38;;;;;;;12.02;5.07;;;;;;;;;;6236133;28;20503;-55
2023/05/05 07:45:39;;;;;;;7.80;4.00;;;;;;;;;;6235261;28;20073;-58
2023/05/05 07:48:40;;;;;;;20.20;11.70;;;;;;;;;;6243471;28;20061;-64
2023/05/05 07:51:41;;;;;;;6.70;3.93;;;;;;;;;;6224570;28;20046;-68
2023/05/05 07:54:42;;;;;;;7.10;3.30;;;;;;;;;;6234819;28;20286;-59
2023/05/05 07:57:43;;;;;;;6.32;3.80;;;;;;;;;;6243747;28;20106;-57
2023/05/05 08:00:44;;;;;;;8.88;4.47;;;;;;;;;;6242601;28;20045;-55
2023/05/05 08:03:45;;;;;;;9.80;4.07;;;;;;;;;;6243523;28;20053;-53
2023/05/05 08:06:45;;;;;;;8.93;3.90;;;;;;;;;;6243741;28;20608;-55
2023/05/05 08:09:46;;;;;;;7.10;3.10;;;;;;;;;;6237328;28;20110;-58
2023/05/05 08:12:47;;;;;;;7.70;3.75;;;;;;;;;;6235099;28;20545;-56
2023/05/05 08:15:47;;;;;;;6.47;3.80;;;;;;;;;;6243595;28;20041;-54
2023/05/05 08:18:48;;;;;;;7.80;3.20;;;;;;;;;;6242732;28;20439;-67
2023/05/05 08:21:49;;;;;;;7.40;3.40;;;;;;;;;;6235052;28;20041;-62
2023/05/05 08:24:49;;;;;;;6.72;3.55;;;;;;;;;;6236019;28;20049;-55
2023/05/05 08:27:50;;;;;;;7.82;3.95;;;;;;;;;;6243363;28;20084;-57
2023/05/05 08:30:51;;;;;;;9.77;4.40;;;;;;;;;;6242122;28;20049;-59
2023/05/05 08:33:51;;;;;;;11.32;4.90;;;;;;;;;;6244283;28;20050;-54
2023/05/05 08:36:52;;;;;;;9.88;4.55;;;;;;;;;;6243157;28;20550;-55
2023/05/05 08:39:52;;;;;;;12.30;3.63;;;;;;;;;;6241988;28;20524;-58
2023/05/05 08:42:53;;;;;;;8.63;3.55;;;;;;;;;;6239734;28;20050;-61
2023/05/05 08:45:55;;;;;;;8.95;3.67;;;;;;;;;;6230647;28;20378;-57
2023/05/05 08:48:56;;;;;;;12.23;3.83;;;;;;;;;;6233573;28;20231;-59
2023/05/05 08:52:00;;;;;;;24.85;4.70;;;;;;;;;;6233599;28;20045;-58
2023/05/05 08:55:16;;;;;;;8.57;4.05;;;;;;;;;;6233059;28;20053;-58
2023/05/05 08:58:18;;;;;;;9.02;4.60;;;;;;;;;;6232554;28;20045;-64
2023/05/05 09:01:20;;;;;;;6.03;3.50;;;;;;;;;;6230135;28;20044;-58
2023/05/05 09:04:20;;;;;;;6.03;3.88;;;;;;;;;;6233179;28;20049;-52
2023/05/05 09:07:21;;;;;;;15.50;4.38;;;;;;;;;;6232650;28;20408;-59
2023/05/05 09:10:24;;;;;;;69.37;8.20;;;;;;;;;;6229663;28;20068;-57
2023/05/05 09:13:25;;;;;;;21.42;5.07;;;;;;;;;;6232709;28;21123;-58
2023/05/05 09:16:26;;;;;;;9.93;4.15;;;;;;;;;;6233151;28;20099;-55
2023/05/05 09:19:26;;;;;;;8.07;3.80;;;;;;;;;;6231074;28;20057;-60
2023/05/05 09:22:36;;;;;;;7.93;4.05;;;;;;;;;;6230663;28;20480;-58
2023/05/05 09:25:37;;;;;;;5.55;3.13;;;;;;;;;;6232888;28;20571;-57
2023/05/05 09:28:50;;;;;;;9.43;3.92;;;;;;;;;;6232013;28;20469;-57
2023/05/05 09:32:10;;;;;;;9.65;3.13;;;;;;;;;;6228259;28;20136;-58
2023/05/05 09:35:10;;;;;;;7.70;3.30;;;;;;;;;;6232649;28;20055;-59
2023/05/05 09:38:11;;;;;;;6.95;3.50;;;;;;;;;;6232514;28;20579;-61
2023/05/05 09:41:11;;;;;;;8.60;3.35;;;;;;;;;;6227302;28;20053;-57
2023/05/05 09:44:15;;;;;;;6.28;3.33;;;;;;;;;;6227242;28;20049;-63
2023/05/05 09:47:17;;;;;;;4.88;2.70;;;;;;;;;;6228626;28;20554;-57
2023/05/05 09:50:18;;;;;;;8.98;3.65;;;;;;;;;;6231925;28;20037;-60
2023/05/05 09:53:19;;;;;;;29.57;4.03;;;;;;;;;;6229076;28;20041;-55
2023/05/05 09:56:20;;;;;;;6.80;3.50;;;;;;;;;;6232500;28;20913;-57
2023/05/05 09:59:21;;;;;;;5.90;2.83;;;;;;;;;;6230677;28;20045;-56
2023/05/05 10:02:31;;;;;;;8.03;2.90;;;;;;;;;;6228908;28;20068;-61
2023/05/05 10:05:32;;;;;;;6.55;3.00;;;;;;;;;;6230927;28;20064;-57
2023/05/05 10:08:33;;;;;;;9.10;4.82;;;;;;;;;;6218640;28;20969;-56
2023/05/05 10:11:34;;;;;;;7.05;3.08;;;;;;;;;;6217811;28;20053;-63
2023/05/05 10:14:35;;;;;;;9.87;3.53;;;;;;;;;;6235758;28;20053;-59
2023/05/05 10:17:57;;;;;;;9.23;3.00;;;;;;;;;;6237463;28;20231;-60
2023/05/05 10:20:58;;;;;;;7.20;3.15;;;;;;;;;;6229449;28;20061;-63
2023/05/05 10:24:13;;;;;;;5.18;3.20;;;;;;;;;;6236261;28;20049;-59
2023/05/05 10:27:17;;;;;;;6.20;3.20;;;;;;;;;;6233670;28;20045;-56
2023/05/05 10:30:30;;;;;;;6.55;3.70;;;;;;;;;;6230636;28;20052;-53
2023/05/05 10:33:46;;;;;;;6.03;3.13;;;;;;;;;;6237456;28;20049;-56
2023/05/05 10:36:48;;;;;;;5.22;3.13;;;;;;;;;;6233824;28;20054;-57
2023/05/05 10:39:50;;;;;;;5.43;2.90;;;;;;;;;;6233775;28;20583;-57
2023/05/05 10:42:52;;;;;;;9.55;3.92;;;;;;;;;;6229279;28;20752;-60
2023/05/05 10:45:54;;;;;;;5.82;3.10;;;;;;;;;;6227427;28;20135;-59
2023/05/05 10:49:15;;;;;;;9.50;4.28;;;;;;;;;;6225959;28;20050;-59
2023/05/05 10:52:26;;;;;;;7.43;3.73;;;;;;;;;;6228008;28;20082;-57
2023/05/05 10:55:40;;;;;;;10.88;3.88;;;;;;;;;;6226877;28;20045;-59
2023/05/05 10:58:40;;;;;;;10.90;3.80;;;;;;;;;;6224851;28;20407;-57
2023/05/05 11:01:41;;;;;;;6.57;3.45;;;;;;;;;;6222739;28;20072;-54
2023/05/05 11:04:42;;;;;;;5.87;3.27;;;;;;;;;;6227936;28;20076;-58
2023/05/05 11:07:45;;;;;;;7.40;3.67;;;;;;;;;;6224880;28;20091;-61
2023/05/05 11:10:45;;;;;;;6.22;3.50;;;;;;;;;;6224493;28;20434;-59
2023/05/05 11:13:46;;;;;;;14.30;3.92;;;;;;;;;;6228481;28;20103;-58
2023/05/05 11:16:48;;;;;;;6.67;3.17;;;;;;;;;;6228264;28;20057;-57
2023/05/05 11:19:51;;;;;;;5.45;3.13;;;;;;;;;;6222813;28;20045;-59
2023/05/05 11:23:03;;;;;;;;;;;;;;;;;;6228592;28;20050;-53
2023/05/05 11:26:04;;;;;;;9.27;4.65;;;;;;;;;;6225996;28;19978;-58
2023/05/05 11:29:05;;;;;;;9.47;4.17;;;;;;;;;;6224501;28;20041;-51
2023/05/05 11:32:14;;;;;;;8.70;3.20;;;;;;;;;;6223193;28;20136;-58
2023/05/05 11:35:15;;;;;;;6.57;3.40;;;;;;;;;;6226631;28;20087;-60
2023/05/05 11:38:17;;;;;;;5.07;2.87;;;;;;;;;;6226892;28;20763;-57
2023/05/05 11:41:33;;;;;;;7.75;3.83;;;;;;;;;;6204844;28;20045;-56
2023/05/05 11:44:34;;;;;;;6.43;3.13;;;;;;;;;;6225037;28;20240;-57
2023/05/05 11:47:35;;;;;;;7.93;3.67;;;;;;;;;;6226368;28;20065;-61
2023/05/05 11:50:36;;;;;;;7.53;3.60;;;;;;;;;;6224317;28;20431;-58
2023/05/05 11:53:41;;;;;;;11.53;3.70;;;;;;;;;;6224869;28;20061;-57
2023/05/05 11:57:09;;;;;;;8.63;3.38;;;;;;;;;;6227204;28;20140;-59
2023/05/05 12:00:10;;;;;;;7.28;3.03;;;;;;;;;;6224542;28;20063;-56
2023/05/05 12:03:11;;;;;;;7.75;3.50;;;;;;;;;;6224072;28;20041;-57
2023/05/05 12:06:12;;;;;;;5.78;3.47;;;;;;;;;;6224909;28;20049;-57
2023/05/05 12:09:16;;;;;;;6.77;3.60;;;;;;;;;;6224793;28;20453;-59
2023/05/05 12:12:17;;;;;;;6.80;3.28;;;;;;;;;;6224912;28;21325;-59
2023/05/05 12:15:27;;;;;;;7.77;3.37;;;;;;;;;;6226596;28;20045;-59
2023/05/05 12:18:27;;;;;;;8.32;3.40;;;;;;;;;;6228192;28;20042;-56
2023/05/05 12:21:28;;;;;;;11.10;3.20;;;;;;;;;;6224281;28;20042;-57
2023/05/05 12:24:29;;;;;;;5.90;3.53;;;;;;;;;;6223443;28;20049;-57
2023/05/05 12:27:29;;;;;;;4.70;3.00;;;;;;;;;;6223114;28;20420;-57
2023/05/05 12:30:30;;;;;;;7.10;3.10;;;;;;;;;;6222529;28;20750;-57
2023/05/05 12:33:38;;;;;;;8.70;3.30;;;;;;;;;;6222312;28;20053;-56
2023/05/05 12:36:39;;;;;;;6.93;3.28;;;;;;;;;;6225205;28;20080;-56
2023/05/05 12:39:39;;;;;;;5.53;3.10;;;;;;;;;;6223698;28;20499;-58
2023/05/05 12:42:40;;;;;;;7.33;3.00;;;;;;;;;;6225588;28;20137;-58
2023/05/05 12:45:41;;;;;;;5.40;3.07;;;;;;;;;;6222829;28;20723;-57
2023/05/05 12:48:44;;;;;;;7.50;3.13;;;;;;;;;;6224143;28;20046;-56
2023/05/05 12:51:55;;;;;;;6.68;3.63;;;;;;;;;;6223039;28;20442;-55
2023/05/05 12:54:58;;;;;;;7.03;4.20;;;;;;;;;;6205178;28;20661;-56
2023/05/05 12:58:03;;;;;;;9.27;4.85;;;;;;;;;;6223714;28;20538;-57
2023/05/05 13:01:07;;;;;;;7.05;3.50;;;;;;;;;;6221833;28;20045;-59
2023/05/05 13:04:12;;;;;;;7.57;3.30;;;;;;;;;;6224325;28;20056;-56
2023/05/05 13:07:14;;;;;;;6.47;3.28;;;;;;;;;;6224249;28;20144;-60
2023/05/05 13:10:15;;;;;;;5.38;3.10;;;;;;;;;;6221226;28;20053;-61
2023/05/05 13:13:15;;;;;;;8.33;3.27;;;;;;;;;;6224495;28;20045;-60
2023/05/05 13:16:16;;;;;;;7.40;3.47;;;;;;;;;;6222529;28;23317;-59
2023/05/05 13:19:16;;;;;;;6.43;3.40;;;;;;;;;;6221761;28;20496;-58
2023/05/05 13:22:17;;;;;;;5.53;3.20;;;;;;;;;;6210765;28;20055;-57
2023/05/05 13:25:18;;;;;;;5.40;3.40;;;;;;;;;;6227332;28;20041;-59
2023/05/05 13:28:18;;;;;;;6.37;3.60;;;;;;;;;;6224963;28;20136;-60
2023/05/05 13:31:19;;;;;;;7.80;3.50;;;;;;;;;;6223833;28;20184;-55
2023/05/05 13:34:19;;;;;;;9.30;3.33;;;;;;;;;;6226997;28;20412;-60
2023/05/05 13:37:20;;;;;;;7.50;3.27;;;;;;;;;;6225196;28;20170;-57
2023/05/05 13:40:21;;;;;;;7.67;3.40;;;;;;;;;;6220841;28;20045;-57
2023/05/05 13:43:22;;;;;;;6.83;3.30;;;;;;;;;;6224127;28;20049;-57
2023/05/05 13:46:22;;;;;;;6.83;3.17;;;;;;;;;;6226807;28;20890;-57
2023/05/05 13:49:25;;;;;;;7.38;4.28;;;;;;;;;;6210711;28;20578;-68
2023/05/05 13:52:26;;;;;;;7.28;3.60;;;;;;;;;;6231666;28;20049;-63
2023/05/05 13:55:27;;;;;;;7.70;3.30;;;;;;;;;;6229753;28;20401;-54
2023/05/05 13:58:28;;;;;;;7.65;3.75;;;;;;;;;;6224950;28;20057;-59
2023/05/05 14:01:29;;;;;;;5.72;3.10;;;;;;;;;;6225748;28;20049;-57
2023/05/05 14:04:29;;;;;;;6.43;3.50;;;;;;;;;;6229108;28;20064;-59
2023/05/05 14:07:31;;;;;;;5.87;3.33;;;;;;;;;;6226339;28;20057;-60
2023/05/05 14:10:31;;;;;;;10.10;4.20;;;;;;;;;;6224602;28;20053;-58
2023/05/05 14:13:32;;;;;;;5.83;3.40;;;;;;;;;;6229527;28;20076;-58
2023/05/05 14:16:33;;;;;;;6.50;3.97;;;;;;;;;;6226880;28;20049;-58
2023/05/05 14:19:33;;;;;;;8.13;4.27;;;;;;;;;;6224978;28;20141;-56
2023/05/05 14:22:34;;;;;;;6.60;3.60;;;;;;;;;;6228940;28;20657;-58
2023/05/05 14:25:35;;;;;;;9.70;5.17;;;;;;;;;;6228003;28;20085;-58
2023/05/05 14:28:35;;;;;;;6.10;3.37;;;;;;;;;;6229559;28;20054;-57
2023/05/05 14:31:36;;;;;;;5.93;3.60;;;;;;;;;;6224738;28;20059;-56
2023/05/05 14:34:36;;;;;;;5.57;3.80;;;;;;;;;;6227301;28;20052;-57
2023/05/05 14:37:37;;;;;;;7.90;3.40;;;;;;;;;;6227101;28;20076;-58
2023/05/05 14:40:37;;;;;;;5.40;3.17;;;;;;;;;;6224941;28;20054;-63
2023/05/05 14:43:38;;;;;;;12.57;5.23;;;;;;;;;;6227847;28;20138;-60
2023/05/05 14:46:38;;;;;;;5.40;3.77;;;;;;;;;;6225215;28;20052;-59
2023/05/05 14:49:39;;;;;;;11.97;4.73;;;;;;;;;;6225378;28;21296;-58
2023/05/05 14:52:40;;;;;;;6.00;3.60;;;;;;;;;;6231763;28;20053;-61
2023/05/05 14:55:41;;;;;;;9.50;3.30;;;;;;;;;;6231292;28;20057;-65
2023/05/05 14:58:42;;;;;;;6.20;3.43;;;;;;;;;;6232092;28;20123;-56
2023/05/05 15:01:42;;;;;;;6.97;3.60;;;;;;;;;;6230295;28;20519;-60
2023/05/05 15:04:43;;;;;;;9.20;3.97;;;;;;;;;;6228330;28;20053;-56
2023/05/05 15:07:44;;;;;;;7.53;3.60;;;;;;;;;;6210712;28;20053;-60
2023/05/05 15:10:44;;;;;;;6.30;3.20;;;;;;;;;;6229314;28;20058;-59
2023/05/05 15:13:45;;;;;;;4.68;3.03;;;;;;;;;;6231759;28;20136;-62
2023/05/05 15:16:46;;;;;;;6.70;2.87;;;;;;;;;;6229562;28;20053;-58
2023/05/05 15:19:46;;;;;;;5.03;2.70;;;;;;;;;;6229102;28;20044;-60
2023/05/05 15:22:47;;;;;;;6.60;3.03;;;;;;;;;;6233528;28;20046;-58
2023/05/05 15:25:48;;;;;;;7.87;3.00;;;;;;;;;;6230854;28;20045;-58
2023/05/05 15:28:48;;;;;;;4.80;3.00;;;;;;;;;;6232226;28;20050;-57
2023/05/05 15:31:49;;;;;;;6.73;3.77;;;;;;;;;;6228313;28;20053;-59
2023/05/05 15:34:49;;;;;;;7.37;3.70;;;;;;;;;;6231400;28;20041;-60
2023/05/05 15:37:51;;;;;;;6.80;3.53;;;;;;;;;;6230071;28;20045;-57
2023/05/05 15:40:52;;;;;;;5.53;3.10;;;;;;;;;;6212072;28;20057;-62
2023/05/05 15:43:52;;;;;;;8.13;3.83;;;;;;;;;;6232389;28;20069;-60
2023/05/05 15:46:53;;;;;;;8.00;3.60;;;;;;;;;;6230526;28;20052;-60
2023/05/05 15:49:53;;;;;;;5.50;3.00;;;;;;;;;;6230801;28;20081;-58
2023/05/05 15:52:55;;;;;;;5.73;3.07;;;;;;;;;;6233310;28;20046;-59
2023/05/05 15:55:56;;;;;;;7.90;3.40;;;;;;;;;;6230141;28;20471;-59
2023/05/05 15:58:56;;;;;;;5.37;2.90;;;;;;;;;;6229369;28;20067;-59
2023/05/05 16:01:57;;;;;;;5.47;3.07;;;;;;;;;;6226648;28;20045;-58
2023/05/05 16:04:58;;;;;;;7.17;3.60;;;;;;;;;;6228233;28;20042;-59
2023/05/05 16:07:59;;;;;;;7.45;3.70;;;;;;;;;;6229073;28;20045;-59
2023/05/05 16:11:00;;;;;;;6.40;3.20;;;;;;;;;;6229076;28;20427;-57
2023/05/05 16:14:00;;;;;;;5.78;3.10;;;;;;;;;;6229085;28;20075;-58
2023/05/05 16:17:01;;;;;;;6.60;3.80;;;;;;;;;;6229627;28;20046;-57
2023/05/05 16:20:02;;;;;;;6.37;3.20;;;;;;;;;;6225794;28;20053;-59
2023/05/05 16:23:03;;;;;;;4.72;2.85;;;;;;;;;;6225156;28;21279;-59
2023/05/05 16:26:04;;;;;;;6.47;3.50;;;;;;;;;;6229621;28;20045;-58
2023/05/05 16:29:04;;;;;;;6.37;3.80;;;;;;;;;;6228142;28;20535;-68
2023/05/05 16:32:16;;;;;;;6.57;4.18;;;;;;;;;;6230696;28;20071;-68
2023/05/05 16:35:17;;;;;;;6.70;3.07;;;;;;;;;;6230942;28;20049;-67
2023/05/05 16:38:17;;;;;;;9.13;3.60;;;;;;;;;;6213096;28;20144;-68
2023/05/05 16:41:18;;;;;;;6.60;3.73;;;;;;;;;;6227811;28;20484;-68
2023/05/05 16:44:19;;;;;;;7.13;3.90;;;;;;;;;;6213534;28;20064;-65
2023/05/05 16:47:20;;;;;;;5.83;3.37;;;;;;;;;;6229754;28;20045;-68
2023/05/05 16:50:21;;;;;;;7.47;4.13;;;;;;;;;;6227977;28;20069;-67
2023/05/05 16:53:21;;;;;;;8.07;3.93;;;;;;;;;;6231161;28;20484;-66
2023/05/05 16:56:22;;;;;;;6.50;3.70;;;;;;;;;;6229411;28;20178;-67
2023/05/05 16:59:23;;;;;;;8.00;4.30;;;;;;;;;;6228007;28;21674;-66
2023/05/05 17:02:23;;;;;;;8.23;4.00;;;;;;;;;;6232212;28;20060;-66
2023/05/05 17:05:24;;;;;;;5.50;3.37;;;;;;;;;;6228388;28;20053;-67
2023/05/05 17:08:24;;;;;;;8.57;4.07;;;;;;;;;;6230032;28;20180;-66
2023/05/05 17:11:25;;;;;;;5.53;3.60;;;;;;;;;;6228226;28;20068;-66
2023/05/05 17:14:26;;;;;;;9.23;4.63;;;;;;;;;;6229916;28;20747;-66
2023/05/05 17:17:27;;;;;;;7.23;3.43;;;;;;;;;;6228295;28;20049;-67
2023/05/05 17:20:27;;;;;;;8.33;4.23;;;;;;;;;;6226125;28;20049;-65
2023/05/05 17:23:28;;;;;;;13.03;6.90;;;;;;;;;;6230455;28;20041;-64
2023/05/05 17:26:29;;;;;;;10.47;5.40;;;;;;;;;;6229561;28;20503;-67
2023/05/05 17:29:30;;;;;;;12.97;6.83;;;;;;;;;;6227426;28;20049;-67
2023/05/05 17:32:30;;;;;;;9.03;5.20;;;;;;;;;;6230877;28;20056;-67
2023/05/05 17:35:31;;;;;;;14.63;7.40;;;;;;;;;;6229012;28;20053;-66
2023/05/05 17:38:33;;;;;;;14.57;6.93;;;;;;;;;;6229776;28;20049;-67
2023/05/05 17:41:34;;;;;;;11.57;6.97;;;;;;;;;;6209006;28;20436;-67
2023/05/05 17:44:34;;;;;;;19.53;10.20;;;;;;;;;;6228444;28;20054;-67
2023/05/05 17:47:35;;;;;;;16.37;7.40;;;;;;;;;;6227707;28;20053;-67
2023/05/05 17:50:35;;;;;;;14.93;7.20;;;;;;;;;;6225172;28;20496;-68
2023/05/05 17:53:36;;;;;;;16.33;7.97;;;;;;;;;;6230006;28;20077;-66
2023/05/05 17:56:37;;;;;;;17.10;8.80;;;;;;;;;;6227212;28;20052;-66
2023/05/05 17:59:37;;;;;;;11.40;6.80;;;;;;;;;;6208499;28;20050;-65
2023/05/05 18:02:38;;;;;;;12.77;7.33;;;;;;;;;;6229709;28;20060;-64
2023/05/05 18:05:39;;;;;;;11.97;6.53;;;;;;;;;;6225590;28;20482;-64
2023/05/05 18:08:39;;;;;;;11.10;6.03;;;;;;;;;;6225011;28;20057;-64